Time;durP1;ratioP1;P1;durP2;ratioP2;P2;SDS_P1;SDS_P2;PMS_P1;PMS_P2;Temp;Humidity;BMP_temperature;BMP_pressure;BME280_temperature;BME280_humidity;BME280_pressure;Samples;Min_cycle;Max_cycle;Signal;HPM_P1;HPM_P2
2022/08/25 00:01:51;;;;;;;28.23;24.57;;;18.40;99.90;;;;;;5018000;28;20440;-52
2022/08/25 00:04:18;;;;;;;28.50;25.60;;;18.40;99.90;;;;;;5028350;28;20438;-55
2022/08/25 00:06:45;;;;;;;27.73;24.80;;;18.40;99.90;;;;;;5029089;28;20531;-52
2022/08/25 00:09:14;;;;;;;26.97;24.17;;;18.30;99.90;;;;;;5026231;28;20494;-55
2022/08/25 00:11:41;;;;;;;29.90;24.60;;;18.30;99.90;;;;;;5029674;28;20517;-55
2022/08/25 00:14:13;;;;;;;27.90;24.80;;;18.30;99.90;;;;;;5027148;28;20421;-54
2022/08/25 00:16:39;;;;;;;28.67;25.77;;;18.30;99.90;;;;;;5025035;28;20955;-55
2022/08/25 00:19:10;;;;;;;26.23;23.37;;;18.30;99.90;;;;;;5027477;28;20450;-56
2022/08/25 00:21:36;;;;;;;27.33;24.63;;;18.20;99.90;;;;;;5014634;28;20429;-52
2022/08/25 00:24:03;;;;;;;26.80;24.07;;;18.30;99.90;;;;;;5027043;28;20433;-55
2022/08/25 00:26:30;;;;;;;28.27;25.00;;;18.20;99.90;;;;;;5030350;28;20421;-52
2022/08/25 00:28:55;;;;;;;33.20;27.07;;;18.20;99.90;;;;;;5022001;28;20449;-56
2022/08/25 00:31:24;;;;;;;26.87;24.07;;;18.20;99.90;;;;;;5025436;28;20919;-53
2022/08/25 00:33:51;;;;;;;28.20;25.20;;;18.10;99.90;;;;;;5026407;28;20552;-52
2022/08/25 00:36:18;;;;;;;28.77;25.77;;;18.10;99.90;;;;;;5027206;28;20507;-53
2022/08/25 00:38:46;;;;;;;29.03;26.20;;;18.10;99.90;;;;;;5026513;28;20431;-54
2022/08/25 00:41:16;;;;;;;29.53;26.43;;;18.10;99.90;;;;;;5024158;28;20425;-50
2022/08/25 00:43:55;;;;;;;28.07;25.10;;;18.10;99.90;;;;;;5029389;28;20441;-56
2022/08/25 00:46:25;;;;;;;30.03;25.67;;;18.10;99.90;;;;;;5031740;28;20429;-49
2022/08/25 00:48:56;;;;;;;26.30;23.50;;;18.10;99.90;;;;;;5029441;28;20491;-53
2022/08/25 00:51:33;;;;;;;30.07;25.47;;;18.00;99.90;;;;;;5023737;28;20487;-54
2022/08/25 00:54:00;;;;;;;30.17;26.97;;;18.00;99.90;;;;;;5027650;28;20448;-54
2022/08/25 00:56:27;;;;;;;30.17;27.10;;;18.00;99.90;;;;;;5031854;28;20459;-53
2022/08/25 00:58:53;;;;;;;29.60;26.10;;;18.00;99.90;;;;;;5028929;28;20503;-55
2022/08/25 01:01:19;;;;;;;29.03;25.93;;;18.00;99.90;;;;;;5022259;28;20430;-52
2022/08/25 01:03:45;;;;;;;29.07;26.07;;;18.00;99.90;;;;;;5026932;28;20186;-53
2022/08/25 01:06:11;;;;;;;27.67;24.87;;;18.00;99.90;;;;;;5029720;28;20183;-56
2022/08/25 01:08:37;;;;;;;30.30;27.20;;;17.90;99.90;;;;;;5024297;28;21064;-54
2022/08/25 01:11:05;;;;;;;32.10;27.30;;;17.90;99.90;;;;;;5012230;28;20403;-54
2022/08/25 01:13:46;;;;;;;32.60;27.97;;;17.90;99.90;;;;;;5015032;28;20427;-53
2022/08/25 01:16:13;;;;;;;30.47;26.07;;;17.80;99.90;;;;;;5026058;28;20505;-55
2022/08/25 01:18:49;;;;;;;30.50;27.00;;;17.80;99.90;;;;;;5011958;28;20446;-55
2022/08/25 01:21:16;;;;;;;30.80;27.53;;;17.80;99.90;;;;;;5025773;28;20436;-51
2022/08/25 01:23:43;;;;;;;30.60;26.43;;;17.80;99.90;;;;;;5030256;28;20441;-56
2022/08/25 01:26:22;;;;;;;31.07;25.40;;;17.80;99.90;;;;;;5030134;28;20479;-53
2022/08/25 01:31:35;;;;;;;28.17;25.17;;;17.70;99.90;;;;;;5011973;28;20413;-54
2022/08/25 01:34:02;;;;;;;28.47;25.37;;;17.70;99.90;;;;;;5018047;28;20460;-52
2022/08/25 01:36:29;;;;;;;32.00;26.40;;;17.70;99.90;;;;;;5030109;28;20453;-55
2022/08/25 01:38:55;;;;;;;28.33;25.30;;;17.70;99.90;;;;;;5031273;28;20413;-54
2022/08/25 01:41:26;;;;;;;29.90;26.00;;;17.70;99.90;;;;;;5030919;28;20405;-54
2022/08/25 01:43:52;;;;;;;29.23;26.03;;;17.70;99.90;;;;;;5026485;28;20433;-53
2022/08/25 01:46:17;;;;;;;29.90;25.00;;;17.70;99.90;;;;;;5029589;28;20446;-54
2022/08/25 01:48:43;;;;;;;29.00;24.50;;;17.60;99.90;;;;;;5017978;28;20182;-53
2022/08/25 01:51:08;;;;;;;30.43;26.20;;;17.60;99.90;;;;;;5011295;28;20182;-51
2022/08/25 01:53:34;;;;;;;26.90;24.20;;;17.60;99.90;;;;;;5020401;28;20277;-54
2022/08/25 01:56:10;;;;;;;31.10;27.87;;;17.60;99.90;;;;;;5032394;28;20301;-53
2022/08/25 01:58:40;;;;;;;31.00;26.10;;;17.60;99.90;;;;;;5030779;28;20591;-56
2022/08/25 02:01:10;;;;;;;30.03;25.77;;;17.60;99.90;;;;;;5029747;28;20433;-52
2022/08/25 02:03:39;;;;;;;27.60;24.60;;;17.60;99.90;;;;;;5030544;28;20429;-54
2022/08/25 02:06:05;;;;;;;29.47;25.10;;;17.60;99.90;;;;;;5031413;28;20499;-56
2022/08/25 02:08:31;;;;;;;28.20;25.20;;;17.70;99.90;;;;;;5028977;28;20438;-53
2022/08/25 02:10:57;;;;;;;28.27;25.23;;;17.60;99.90;;;;;;5032994;28;20433;-53
2022/08/25 02:13:22;;;;;;;30.03;26.50;;;17.60;99.90;;;;;;5028165;28;21186;-55
2022/08/25 02:15:51;;;;;;;33.13;27.70;;;17.60;99.90;;;;;;5028087;28;20297;-53
2022/08/25 02:18:18;;;;;;;27.87;24.37;;;17.50;99.90;;;;;;5028375;28;20869;-52
2022/08/25 02:20:44;;;;;;;30.03;26.67;;;17.60;99.90;;;;;;5022205;28;20421;-54
2022/08/25 02:23:09;;;;;;;31.57;26.87;;;17.50;99.90;;;;;;5029916;28;20447;-52
2022/08/25 02:25:37;;;;;;;28.40;25.33;;;17.50;99.90;;;;;;5030362;28;20754;-54
2022/08/25 02:28:03;;;;;;;29.67;25.70;;;17.50;99.90;;;;;;5024835;28;20178;-55
2022/08/25 02:30:30;;;;;;;30.30;26.37;;;17.50;99.90;;;;;;5023912;28;20476;-52
2022/08/25 02:32:56;;;;;;;31.30;24.73;;;17.50;99.90;;;;;;5028614;28;20832;-54
2022/08/25 02:35:22;;;;;;;26.80;24.00;;;17.50;99.90;;;;;;5030224;28;20775;-54
2022/08/25 02:37:50;;;;;;;31.40;25.20;;;17.50;99.90;;;;;;5025662;28;20466;-53
2022/08/25 02:40:16;;;;;;;29.97;25.67;;;17.60;99.90;;;;;;5029660;28;20266;-55
2022/08/25 02:42:43;;;;;;;29.40;24.03;;;17.60;99.90;;;;;;5027926;28;20430;-53
2022/08/25 02:45:09;;;;;;;30.50;25.63;;;17.60;99.90;;;;;;5019677;28;20175;-56
2022/08/25 02:47:35;;;;;;;27.37;24.47;;;17.60;99.90;;;;;;5028708;28;20471;-56
2022/08/25 02:50:03;;;;;;;31.90;25.97;;;17.60;99.90;;;;;;5030833;28;20185;-55
2022/08/25 02:52:28;;;;;;;28.70;25.67;;;17.60;99.90;;;;;;5027095;28;20591;-54
2022/08/25 02:54:54;;;;;;;26.93;24.20;;;17.60;99.90;;;;;;5030321;28;20543;-52
2022/08/25 02:57:20;;;;;;;28.87;25.77;;;17.60;99.90;;;;;;5029737;28;20360;-52
2022/08/25 02:59:47;;;;;;;29.60;26.20;;;17.60;99.90;;;;;;5028065;28;20187;-54
2022/08/25 03:02:14;;;;;;;28.23;25.20;;;17.60;99.90;;;;;;5018487;28;20511;-53
2022/08/25 03:04:40;;;;;;;32.67;28.40;;;17.50;99.90;;;;;;5030702;28;20456;-54
2022/08/25 03:07:06;;;;;;;30.83;27.53;;;17.50;99.90;;;;;;5025976;28;21157;-50
2022/08/25 03:09:31;;;;;;;36.70;27.40;;;17.50;99.90;;;;;;5024033;28;20593;-53
2022/08/25 03:11:57;;;;;;;33.63;27.93;;;17.40;99.90;;;;;;5029276;28;20512;-53
2022/08/25 03:14:23;;;;;;;32.87;29.30;;;17.40;99.90;;;;;;5027337;28;20241;-54
2022/08/25 03:16:49;;;;;;;32.73;29.20;;;17.40;99.90;;;;;;5025504;28;20548;-55
2022/08/25 03:19:15;;;;;;;36.57;31.73;;;17.30;99.90;;;;;;5035148;28;20179;-53
2022/08/25 03:21:41;;;;;;;34.60;30.17;;;17.30;99.90;;;;;;5029993;28;20440;-51
2022/08/25 03:24:06;;;;;;;35.70;30.67;;;17.20;99.90;;;;;;5026959;28;20424;-51
2022/08/25 03:29:17;;;;;;;33.87;28.00;;;17.30;99.90;;;;;;5024008;28;20594;-55
2022/08/25 03:31:44;;;;;;;31.63;28.33;;;17.30;99.90;;;;;;5035542;28;20429;-53
2022/08/25 03:34:11;;;;;;;30.40;27.20;;;17.30;99.90;;;;;;5037166;28;20498;-53
2022/08/25 03:36:37;;;;;;;29.47;26.30;;;17.30;99.90;;;;;;5036129;28;20469;-50
2022/08/25 03:39:04;;;;;;;33.03;29.33;;;17.30;99.90;;;;;;5027621;28;20436;-51
2022/08/25 03:41:31;;;;;;;30.73;26.97;;;17.30;99.90;;;;;;5032474;28;20432;-54
2022/08/25 03:43:58;;;;;;;34.83;27.17;;;17.30;99.90;;;;;;5028666;28;20973;-52
2022/08/25 03:46:38;;;;;;;28.70;25.70;;;17.30;99.90;;;;;;5028286;28;20796;-54
2022/08/25 03:49:06;;;;;;;27.40;24.70;;;17.30;99.90;;;;;;5031380;28;20498;-52
2022/08/25 03:51:36;;;;;;;30.57;25.57;;;17.30;99.90;;;;;;5027465;28;20444;-52
2022/08/25 03:54:03;;;;;;;27.93;24.90;;;17.20;99.90;;;;;;5007760;28;20800;-53
2022/08/25 03:56:28;;;;;;;27.60;24.50;;;17.20;99.90;;;;;;5005772;28;20473;-52
2022/08/25 03:58:55;;;;;;;26.93;23.67;;;17.20;99.90;;;;;;5004995;28;20434;-54
2022/08/25 04:01:20;;;;;;;27.60;24.60;;;17.20;99.90;;;;;;5010717;28;20214;-53
2022/08/25 04:03:47;;;;;;;26.57;23.67;;;17.20;99.90;;;;;;5014476;28;20453;-52
2022/08/25 04:06:15;;;;;;;28.10;25.20;;;17.10;99.90;;;;;;5016503;28;20190;-52
2022/08/25 04:08:41;;;;;;;28.97;25.53;;;17.20;99.90;;;;;;5006971;28;20445;-55
2022/08/25 04:11:26;;;;;;;31.70;25.67;;;17.10;99.90;;;;;;5014165;28;20447;-55
2022/08/25 04:13:55;;;;;;;27.47;24.47;;;17.10;99.90;;;;;;5018247;28;20504;-55
2022/08/25 04:16:26;;;;;;;29.40;26.20;;;17.10;99.90;;;;;;5011798;28;20473;-54
2022/08/25 04:18:54;;;;;;;27.60;24.73;;;17.00;99.90;;;;;;5011082;28;20473;-53
2022/08/25 04:21:20;;;;;;;27.20;24.20;;;17.00;99.90;;;;;;5033846;28;20499;-52
2022/08/25 04:23:47;;;;;;;29.30;25.93;;;17.00;99.90;;;;;;5038297;28;20775;-53
2022/08/25 04:26:19;;;;;;;26.47;23.47;;;17.00;99.90;;;;;;5032401;28;20466;-54
2022/08/25 04:28:45;;;;;;;27.80;24.83;;;17.00;99.90;;;;;;5024327;28;20433;-54
2022/08/25 04:31:13;;;;;;;27.10;24.27;;;17.10;99.90;;;;;;5031537;28;20429;-54
2022/08/25 04:33:40;;;;;;;28.10;25.20;;;17.00;99.90;;;;;;5030758;28;20476;-52
2022/08/25 04:36:10;;;;;;;27.43;24.20;;;17.00;99.90;;;;;;5033184;28;20461;-53
2022/08/25 04:38:36;;;;;;;27.30;24.40;;;17.10;99.90;;;;;;5032302;28;20421;-54
2022/08/25 04:41:04;;;;;;;28.20;25.20;;;17.10;99.90;;;;;;5032230;28;20979;-55
2022/08/25 04:43:30;;;;;;;29.87;24.63;;;17.20;99.90;;;;;;5030374;28;20433;-49
2022/08/25 04:45:57;;;;;;;30.90;26.60;;;17.20;99.90;;;;;;5032364;28;20509;-52
2022/08/25 04:48:23;;;;;;;28.33;24.00;;;17.20;99.90;;;;;;5032134;28;20911;-50
2022/08/25 04:50:49;;;;;;;31.13;24.63;;;17.20;99.90;;;;;;5032176;28;20427;-50
2022/08/25 04:53:15;;;;;;;30.40;24.27;;;17.30;99.90;;;;;;5034083;28;20184;-54
2022/08/25 04:55:45;;;;;;;24.73;22.10;;;17.40;99.90;;;;;;5029676;28;20516;-48
2022/08/25 04:58:12;;;;;;;24.23;21.73;;;17.50;99.90;;;;;;5031365;28;20461;-53
2022/08/25 05:00:39;;;;;;;24.20;21.60;;;17.50;99.90;;;;;;5034443;28;20432;-49
2022/08/25 05:03:05;;;;;;;25.07;22.60;;;17.50;99.90;;;;;;5037981;28;20416;-51
2022/08/25 05:05:34;;;;;;;22.77;20.57;;;17.60;99.90;;;;;;5036853;28;20418;-52
2022/08/25 05:07:59;;;;;;;25.00;22.60;;;17.50;99.90;;;;;;5019706;28;20421;-51
2022/08/25 05:10:25;;;;;;;24.90;22.30;;;17.50;99.90;;;;;;5032657;28;20428;-52
2022/08/25 05:12:51;;;;;;;24.43;21.93;;;17.50;99.90;;;;;;5031685;28;20187;-50
2022/08/25 05:18:00;;;;;;;23.73;21.50;;;17.50;99.90;;;;;;5033164;28;20266;-53
2022/08/25 05:20:26;;;;;;;23.30;21.03;;;17.50;99.90;;;;;;5030813;28;20422;-49
2022/08/25 05:22:52;;;;;;;25.33;22.93;;;17.60;99.90;;;;;;5034445;28;20194;-49
2022/08/25 05:25:17;;;;;;;23.73;21.27;;;17.50;99.90;;;;;;5039439;28;20719;-49
2022/08/25 05:27:43;;;;;;;24.17;21.67;;;17.50;99.90;;;;;;5038567;28;20711;-49
2022/08/25 05:30:10;;;;;;;25.53;23.00;;;17.50;99.90;;;;;;5041015;28;20186;-51
2022/08/25 05:32:37;;;;;;;25.23;22.63;;;17.40;99.90;;;;;;5038910;28;20272;-49
2022/08/25 05:35:05;;;;;;;24.93;22.43;;;17.50;99.90;;;;;;5037811;28;20451;-49
2022/08/25 05:37:31;;;;;;;24.87;22.37;;;17.60;99.90;;;;;;5032386;28;20465;-53
2022/08/25 05:39:57;;;;;;;25.53;23.03;;;17.60;99.90;;;;;;5031604;28;20525;-50
2022/08/25 05:42:23;;;;;;;24.53;22.20;;;17.70;99.90;;;;;;5031292;28;20504;-52
2022/08/25 05:44:49;;;;;;;26.70;24.10;;;17.70;99.90;;;;;;5032084;28;20784;-48
2022/08/25 05:47:15;;;;;;;23.80;21.27;;;17.80;99.90;;;;;;5031858;28;20422;-52
2022/08/25 05:49:41;;;;;;;25.10;22.60;;;17.80;99.90;;;;;;5031120;28;21515;-50
2022/08/25 05:52:07;;;;;;;24.40;22.03;;;17.90;99.90;;;;;;5031972;28;20179;-46
2022/08/25 05:54:32;;;;;;;23.53;21.23;;;18.00;99.90;;;;;;5029806;28;20194;-52
2022/08/25 05:56:59;;;;;;;24.13;21.83;;;18.00;99.90;;;;;;5030265;28;21253;-52
2022/08/25 05:59:25;;;;;;;25.33;22.83;;;18.10;99.90;;;;;;5030831;28;20233;-51
2022/08/25 06:04:35;;;;;;;22.53;20.33;;;18.20;99.90;;;;;;5018878;28;21041;-49
2022/08/25 06:07:00;;;;;;;23.47;21.10;;;18.30;99.90;;;;;;5020385;28;20429;-52
2022/08/25 06:09:26;;;;;;;22.17;20.17;;;18.40;99.90;;;;;;5027753;28;20223;-53
2022/08/25 06:11:52;;;;;;;22.40;20.30;;;18.40;99.90;;;;;;5030985;28;20214;-51
2022/08/25 06:14:19;;;;;;;24.60;22.10;;;18.50;99.90;;;;;;5030791;28;20187;-48
2022/08/25 06:16:44;;;;;;;24.40;22.13;;;18.60;99.90;;;;;;5030427;28;20560;-49
2022/08/25 06:19:10;;;;;;;24.67;22.17;;;18.60;99.90;;;;;;5029469;28;20426;-50
2022/08/25 06:21:39;;;;;;;24.57;22.07;;;18.50;99.90;;;;;;5026304;28;20180;-47
2022/08/25 06:24:05;;;;;;;24.50;21.97;;;18.60;99.90;;;;;;5023172;28;20185;-52
2022/08/25 06:26:31;;;;;;;24.90;22.57;;;18.70;99.90;;;;;;5030922;28;20809;-51
2022/08/25 06:28:57;;;;;;;24.03;21.73;;;18.80;99.90;;;;;;5030490;28;20460;-54
2022/08/25 06:31:23;;;;;;;24.27;21.97;;;19.00;99.90;;;;;;5030229;28;20445;-50
2022/08/25 06:33:49;;;;;;;22.83;20.70;;;19.00;99.90;;;;;;5030105;28;20190;-51
2022/08/25 06:36:15;;;;;;;24.23;21.73;;;19.10;99.90;;;;;;5029576;28;20687;-50
2022/08/25 06:38:41;;;;;;;23.57;21.27;;;19.10;99.90;;;;;;5030454;28;21260;-50
2022/08/25 06:41:09;;;;;;;23.17;20.73;;;19.20;99.90;;;;;;5031091;28;20421;-49
2022/08/25 06:43:35;;;;;;;23.60;21.30;;;19.30;99.90;;;;;;5030214;28;20238;-52
2022/08/25 06:46:28;;;;;;;24.70;22.20;;;19.40;99.90;;;;;;5032406;28;20464;-52
2022/08/25 06:48:55;;;;;;;24.43;22.10;;;19.50;99.90;;;;;;5018779;28;20473;-51
2022/08/25 06:51:22;;;;;;;25.80;23.10;;;19.50;99.90;;;;;;5029498;28;20438;-53
2022/08/25 06:53:49;;;;;;;25.53;23.03;;;19.70;99.90;;;;;;5029794;28;20432;-50
2022/08/25 06:56:17;;;;;;;23.90;21.60;;;19.80;99.90;;;;;;5031157;28;20457;-49
2022/08/25 06:58:44;;;;;;;23.00;20.60;;;20.00;99.90;;;;;;5028318;28;20582;-53
2022/08/25 07:01:10;;;;;;;23.77;21.37;;;20.10;99.90;;;;;;5030528;28;20441;-51
2022/08/25 07:03:37;;;;;;;22.47;20.37;;;20.20;99.90;;;;;;5030387;28;20416;-54
2022/08/25 07:06:03;;;;;;;24.13;21.50;;;20.40;99.90;;;;;;5036578;28;20522;-49
2022/08/25 07:08:30;;;;;;;23.47;21.17;;;20.60;99.90;;;;;;5028365;28;20423;-52
2022/08/25 07:10:55;;;;;;;23.73;21.43;;;20.80;99.90;;;;;;5028805;28;20468;-50
2022/08/25 07:13:21;;;;;;;22.73;20.53;;;20.80;99.90;;;;;;5026508;28;20831;-54
2022/08/25 07:15:51;;;;;;;22.43;20.10;;;20.90;99.90;;;;;;5034295;28;20204;-51
2022/08/25 07:18:17;;;;;;;23.53;21.40;;;21.00;99.90;;;;;;5039424;28;20192;-49
2022/08/25 07:20:43;;;;;;;22.87;20.67;;;21.10;99.90;;;;;;5035623;28;20939;-53
2022/08/25 07:23:08;;;;;;;21.43;19.53;;;21.20;99.90;;;;;;5036019;28;20179;-51
2022/08/25 07:25:34;;;;;;;22.73;20.63;;;21.30;99.90;;;;;;5028697;28;20191;-50
2022/08/25 07:28:00;;;;;;;20.93;19.03;;;21.40;99.90;;;;;;5026413;28;20202;-50
2022/08/25 07:30:26;;;;;;;21.60;19.60;;;21.60;99.90;;;;;;5026927;28;20505;-47
2022/08/25 07:32:52;;;;;;;20.47;18.70;;;21.80;99.90;;;;;;5040632;28;20290;-51
2022/08/25 07:35:19;;;;;;;21.10;19.30;;;22.10;99.90;;;;;;5028690;28;20509;-52
2022/08/25 07:37:50;;;;;;;21.40;19.20;;;22.30;99.90;;;;;;5028291;28;20564;-50
2022/08/25 07:40:20;;;;;;;21.70;19.70;;;22.50;99.90;;;;;;5029363;28;20794;-53
2022/08/25 07:42:49;;;;;;;21.70;19.70;;;22.70;99.90;;;;;;5028468;28;20520;-49
2022/08/25 07:45:15;;;;;;;22.87;20.87;;;22.90;99.90;;;;;;5028577;28;20437;-48
2022/08/25 07:47:41;;;;;;;21.07;19.10;;;23.00;99.90;;;;;;5030734;28;20437;-50
2022/08/25 07:50:09;;;;;;;23.50;21.27;;;23.10;99.90;;;;;;5032401;28;20985;-49
2022/08/25 07:52:35;;;;;;;21.77;19.73;;;23.30;99.90;;;;;;5032286;28;20206;-52
2022/08/25 07:55:02;;;;;;;21.13;19.23;;;23.40;99.90;;;;;;5032215;28;20433;-52
2022/08/25 07:57:28;;;;;;;21.67;19.70;;;23.60;99.90;;;;;;5034029;28;20235;-49
2022/08/25 07:59:54;;;;;;;24.10;21.87;;;23.70;99.90;;;;;;5031021;28;20791;-52
2022/08/25 08:02:20;;;;;;;22.87;20.67;;;23.80;99.90;;;;;;5027192;28;20457;-51
2022/08/25 08:04:48;;;;;;;22.00;20.00;;;23.90;99.90;;;;;;5033033;28;21270;-50
2022/08/25 08:07:22;;;;;;;21.50;19.30;;;24.10;99.90;;;;;;5032262;28;20223;-49
2022/08/25 08:09:48;;;;;;;21.83;19.80;;;24.30;99.90;;;;;;5033103;28;20442;-49
2022/08/25 08:12:14;;;;;;;21.57;19.77;;;24.50;99.90;;;;;;5032966;28;20474;-47
2022/08/25 08:14:39;;;;;;;21.40;19.30;;;24.70;99.90;;;;;;5032669;28;20273;-50
2022/08/25 08:17:07;;;;;;;24.33;21.93;;;24.80;99.90;;;;;;5033044;28;20218;-50
2022/08/25 08:19:33;;;;;;;21.40;19.43;;;25.00;99.90;;;;;;5037289;28;20263;-49
2022/08/25 08:21:59;;;;;;;20.13;18.30;;;25.20;99.90;;;;;;5052130;28;20423;-53
2022/08/25 08:24:25;;;;;;;22.73;20.73;;;25.30;99.90;;;;;;5052021;28;20491;-50
2022/08/25 08:26:50;;;;;;;22.30;20.20;;;25.40;99.90;;;;;;5052062;28;20194;-51
2022/08/25 08:29:18;;;;;;;21.03;18.93;;;25.70;99.90;;;;;;5039959;28;20197;-53
2022/08/25 08:31:44;;;;;;;22.60;20.70;;;25.70;99.90;;;;;;5031980;28;20193;-51
2022/08/25 08:34:11;;;;;;;22.03;20.20;;;25.70;99.90;;;;;;5031974;28;20431;-46
2022/08/25 08:36:36;;;;;;;20.27;18.57;;;25.90;99.90;;;;;;5032649;28;20276;-50
2022/08/25 08:39:02;;;;;;;20.10;18.37;;;26.20;99.90;;;;;;5050785;28;20963;-53
2022/08/25 08:42:15;;;;;;;22.13;20.23;;;26.50;99.90;;;;;;5051832;28;20633;-51
2022/08/25 08:44:44;;;;;;;20.60;18.80;;;26.70;99.90;;;;;;5009319;28;20541;-48
2022/08/25 08:47:48;;;;;;;21.70;19.70;;;27.00;99.90;;;;;;5009355;28;20457;-51
2022/08/25 08:50:28;;;;;;;22.30;20.50;;;27.20;99.90;;;;;;5009210;28;20430;-51
2022/08/25 08:53:07;;;;;;;23.13;20.93;;;27.10;99.90;;;;;;5003333;28;20415;-50
2022/08/25 08:55:47;;;;;;;20.70;18.80;;;27.30;99.90;;;;;;4989901;28;20430;-49
2022/08/25 08:58:24;;;;;;;22.50;20.70;;;27.40;99.90;;;;;;4982281;28;20466;-51
2022/08/25 09:00:54;;;;;;;21.37;19.03;;;27.50;99.90;;;;;;4982319;28;20501;-48
2022/08/25 09:03:29;;;;;;;21.53;19.60;;;27.50;99.90;;;;;;4978658;28;20436;-53
2022/08/25 09:05:59;;;;;;;20.97;19.20;;;27.60;99.90;;;;;;4973142;28;20973;-48
2022/08/25 09:08:25;;;;;;;20.93;19.13;;;27.90;99.90;;;;;;4977312;28;20455;-50
2022/08/25 09:11:01;;;;;;;20.13;18.27;;;28.20;99.90;;;;;;4977813;28;20455;-50
2022/08/25 09:14:01;;;;;;;22.10;20.30;;;28.80;99.90;;;;;;4978805;28;20189;-49
2022/08/25 09:16:54;;;;;;;19.90;18.30;;;29.20;99.10;;;;;;4979562;28;20482;-51
2022/08/25 09:19:44;;;;;;;19.50;18.00;;;29.40;99.20;;;;;;4993382;28;21289;-51
2022/08/25 09:22:27;;;;;;;19.70;17.90;;;30.10;97.40;;;;;;4995266;28;20450;-54
2022/08/25 09:25:10;;;;;;;20.70;18.73;;;30.30;94.40;;;;;;4992086;28;20785;-54
2022/08/25 09:28:01;;;;;;;19.23;17.70;;;30.50;93.80;;;;;;4992130;28;20428;-52
2022/08/25 09:30:29;;;;;;;19.40;17.83;;;30.20;94.10;;;;;;4983664;28;20933;-48
2022/08/25 09:33:02;;;;;;;19.07;17.07;;;30.20;93.10;;;;;;4993051;28;20455;-49
2022/08/25 09:35:35;;;;;;;16.87;15.40;;;30.40;93.20;;;;;;4999265;28;20460;-50
2022/08/25 09:38:05;;;;;;;15.00;13.60;;;30.90;92.20;;;;;;4998544;28;20518;-49
2022/08/25 09:40:34;;;;;;;16.17;14.73;;;31.50;90.20;;;;;;5010877;28;20422;-48
2022/08/25 09:43:04;;;;;;;16.67;15.13;;;32.20;86.30;;;;;;5010753;28;20423;-48
2022/08/25 09:45:40;;;;;;;16.83;15.33;;;32.50;1.00;;;;;;5010825;28;20453;-50
2022/08/25 09:48:24;;;;;;;16.83;15.20;;;32.40;1.00;;;;;;5009196;28;20460;-50
2022/08/25 09:50:56;;;;;;;16.13;14.93;;;32.70;1.00;;;;;;5010768;28;20541;-50
2022/08/25 09:53:21;;;;;;;15.47;14.13;;;33.20;99.90;;;;;;4996278;28;20432;-49
2022/08/25 09:55:58;;;;;;;15.70;14.33;;;33.90;99.90;;;;;;4993205;28;20948;-48
2022/08/25 09:58:24;;;;;;;14.70;13.40;;;34.40;99.90;;;;;;5028687;28;20221;-51
2022/08/25 10:01:10;;;;;;;16.40;14.70;;;34.30;99.90;;;;;;5040756;28;20415;-52
2022/08/25 10:03:35;;;;;;;15.90;13.17;;;34.20;99.90;;;;;;5037222;28;20685;-53
2022/08/25 10:06:07;;;;;;;16.40;14.80;;;34.10;99.90;;;;;;5037629;28;20424;-52
2022/08/25 10:08:35;;;;;;;15.20;13.60;;;33.80;99.90;;;;;;5041413;28;20181;-53
2022/08/25 10:11:07;;;;;;;17.17;13.37;;;33.50;99.90;;;;;;5047423;28;20432;-50
2022/08/25 10:13:46;;;;;;;14.80;12.60;;;33.50;99.90;;;;;;5049993;28;20424;-51
2022/08/25 10:16:24;;;;;;;14.13;11.80;;;33.90;99.90;;;;;;5049946;28;20471;-48
2022/08/25 10:19:12;;;;;;;18.20;11.47;;;34.10;99.90;;;;;;5045089;28;21199;-50
2022/08/25 10:21:41;;;;;;;13.90;11.47;;;33.60;99.90;;;;;;5035912;28;21211;-48
2022/08/25 10:24:10;;;;;;;16.80;12.07;;;33.10;99.90;;;;;;5029497;28;21005;-51
2022/08/25 10:26:44;;;;;;;18.00;11.87;;;33.20;99.90;;;;;;5029560;28;20425;-50
2022/08/25 10:29:37;;;;;;;19.27;11.80;;;33.10;99.90;;;;;;5027570;28;20521;-53
2022/08/25 10:32:11;;;;;;;20.87;13.37;;;33.00;99.90;;;;;;5027846;28;20491;-52
2022/08/25 10:34:49;;;;;;;18.80;12.10;;;32.90;99.90;;;;;;5030374;28;20458;-52
2022/08/25 10:37:25;;;;;;;21.63;11.97;;;32.50;99.90;;;;;;5017560;28;20881;-50
2022/08/25 10:40:03;;;;;;;14.20;11.93;;;32.20;99.90;;;;;;5029280;28;20433;-52
2022/08/25 10:42:42;;;;;;;17.07;12.53;;;32.00;99.90;;;;;;5031088;28;20456;-53
2022/08/25 10:48:13;;;;;;;22.83;13.30;;;31.20;99.90;;;;;;5036403;28;20791;-47
2022/08/25 10:50:44;;;;;;;21.80;12.13;;;31.10;1.00;;;;;;5029143;28;20429;-48
2022/08/25 10:53:26;;;;;;;18.60;11.50;;;32.00;1.00;;;;;;5032176;28;20425;-49
2022/08/25 10:56:06;;;;;;;20.20;11.83;;;32.70;99.90;;;;;;5033990;28;20416;-51
2022/08/25 10:58:56;;;;;;;17.57;11.53;;;32.60;99.90;;;;;;5028279;28;20879;-52
2022/08/25 11:01:40;;;;;;;16.80;12.20;;;32.80;99.90;;;;;;5031141;28;20795;-53
2022/08/25 11:04:18;;;;;;;17.37;12.50;;;32.90;99.90;;;;;;5028887;28;20421;-51
2022/08/25 11:06:57;;;;;;;15.50;12.30;;;32.60;99.90;;;;;;5033970;28;20428;-49
2022/08/25 11:09:28;;;;;;;17.57;13.20;;;31.90;99.90;;;;;;5034500;28;20436;-48
2022/08/25 11:12:17;;;;;;;16.43;12.17;;;31.80;99.90;;;;;;5029506;28;20433;-51
2022/08/25 11:14:55;;;;;;;17.80;12.60;;;31.90;99.90;;;;;;5022711;28;20448;-49
2022/08/25 11:17:45;;;;;;;15.23;12.47;;;31.70;99.90;;;;;;5018606;28;20468;-50
2022/08/25 11:20:16;;;;;;;13.87;11.13;;;31.80;99.90;;;;;;5024681;28;20459;-51
2022/08/25 11:22:44;;;;;;;17.73;11.57;;;31.60;99.90;;;;;;5029365;28;20818;-53
2022/08/25 11:25:31;;;;;;;13.87;11.30;;;31.70;99.90;;;;;;5029125;28;20413;-48
2022/08/25 11:28:10;;;;;;;19.43;11.30;;;31.80;99.90;;;;;;5027676;28;20452;-52
2022/08/25 11:30:37;;;;;;;15.20;11.23;;;32.00;99.90;;;;;;5017775;28;20479;-48
2022/08/25 11:33:03;;;;;;;13.67;11.33;;;31.90;99.90;;;;;;5029289;28;20450;-50
2022/08/25 11:35:32;;;;;;;19.60;11.10;;;31.80;99.90;;;;;;5029321;28;20420;-51
2022/08/25 11:38:01;;;;;;;17.23;12.43;;;32.00;99.90;;;;;;5030096;28;20457;-50
2022/08/25 11:40:29;;;;;;;14.77;12.07;;;31.90;99.90;;;;;;5028002;28;20513;-51
2022/08/25 11:43:00;;;;;;;20.73;12.03;;;32.10;99.90;;;;;;5029997;28;20406;-52
2022/08/25 11:46:05;;;;;;;16.33;11.03;;;32.80;99.90;;;;;;5029085;28;20425;-53
2022/08/25 11:48:49;;;;;;;18.40;12.30;;;33.30;99.90;;;;;;5028953;28;20948;-51
2022/08/25 11:51:39;;;;;;;17.53;11.63;;;34.50;99.90;;;;;;5034909;28;20472;-51
2022/08/25 11:54:19;;;;;;;22.33;11.40;;;35.50;99.90;;;;;;5027254;28;20417;-52
2022/08/25 11:57:20;;;;;;;14.60;11.20;;;36.20;99.90;;;;;;5023847;28;20465;-50
2022/08/25 11:59:49;;;;;;;13.37;12.07;;;36.90;99.90;;;;;;5024262;28;20494;-53
2022/08/25 12:02:32;;;;;;;18.83;11.70;;;37.00;99.90;;;;;;5027787;28;20994;-52
2022/08/25 12:04:58;;;;;;;15.97;12.60;;;36.60;99.90;;;;;;5027822;28;20413;-50
2022/08/25 12:07:28;;;;;;;14.37;11.63;;;36.00;99.90;;;;;;5027813;28;20417;-50
2022/08/25 12:09:53;;;;;;;15.60;11.80;;;35.40;99.90;;;;;;5028004;28;20409;-48
2022/08/25 12:12:56;;;;;;;15.10;11.80;;;34.60;99.90;;;;;;5025260;28;20429;-50
2022/08/25 12:15:23;;;;;;;15.10;12.30;;;34.20;99.90;;;;;;5027525;28;20178;-51
2022/08/25 12:18:15;;;;;;;13.10;9.90;;;34.60;99.90;;;;;;5027872;28;20548;-50
2022/08/25 12:20:53;;;;;;;19.70;11.57;;;35.30;99.90;;;;;;5025313;28;20467;-52
2022/08/25 12:24:03;;;;;;;15.33;10.90;;;35.90;99.90;;;;;;5028102;28;20421;-52
2022/08/25 12:26:37;;;;;;;14.10;11.47;;;37.10;99.90;;;;;;5027809;28;20455;-51
2022/08/25 12:29:09;;;;;;;18.40;11.20;;;38.10;99.90;;;;;;5026171;28;20452;-52
2022/08/25 12:31:49;;;;;;;19.60;11.13;;;39.10;99.90;;;;;;5028553;28;20939;-54
2022/08/25 12:34:21;;;;;;;15.10;11.57;;;39.30;99.90;;;;;;5031169;28;20420;-50
2022/08/25 12:37:19;;;;;;;14.33;12.17;;;39.10;99.90;;;;;;5033233;28;20791;-52
2022/08/25 12:39:47;;;;;;;19.00;11.90;;;39.20;99.90;;;;;;5032486;28;20425;-50
2022/08/25 12:42:35;;;;;;;15.50;11.40;;;39.30;99.90;;;;;;5032269;28;20413;-51
2022/08/25 12:45:18;;;;;;;19.07;12.77;;;39.40;99.90;;;;;;5032092;28;20405;-52
2022/08/25 12:47:46;;;;;;;13.03;11.37;;;38.00;99.90;;;;;;5032624;28;20420;-51
2022/08/25 12:50:28;;;;;;;16.57;10.93;;;37.10;99.90;;;;;;5031290;28;20424;-48
2022/08/25 12:52:57;;;;;;;18.07;12.20;;;36.70;99.90;;;;;;5033610;28;20849;-47
2022/08/25 12:55:25;;;;;;;18.03;11.73;;;36.10;99.90;;;;;;5034064;28;20503;-51
2022/08/25 12:57:59;;;;;;;14.40;11.67;;;35.80;99.90;;;;;;5032032;28;20476;-52
2022/08/25 13:00:36;;;;;;;20.17;11.53;;;35.30;99.90;;;;;;5032020;28;20479;-51